createdAt,value
2022-12-19T00:05:50.916Z,101155.75
2022-12-19T00:08:18.587Z,101148.78
2022-12-19T00:10:55.819Z,101147.09
2022-12-19T00:13:23.399Z,101142.41
2022-12-19T00:15:50.984Z,101132.69
2022-12-19T00:18:18.706Z,101135.19
2022-12-19T00:20:46.450Z,101119.50
2022-12-19T00:23:15.334Z,101111.19
2022-12-19T00:25:46.063Z,101107.97
2022-12-19T00:28:14.769Z,101118.25
2022-12-19T00:30:44.079Z,101108.69
2022-12-19T00:33:11.746Z,101099.69
2022-12-19T00:35:39.596Z,101085.25
2022-12-19T00:38:07.339Z,101090.50
2022-12-19T00:40:36.260Z,101092.88
2022-12-19T00:43:04.174Z,101092.47
2022-12-19T00:45:31.939Z,101084.69
2022-12-19T00:48:00.445Z,101076.78
2022-12-19T00:50:27.954Z,101062.19
2022-12-19T00:52:55.396Z,101069.41
2022-12-19T00:55:23.073Z,101063.28
2022-12-19T00:57:52.547Z,101072.47
2022-12-19T01:00:23.321Z,101081.63
2022-12-19T01:02:51.082Z,101078.00
2022-12-19T01:05:18.781Z,101072.47
2022-12-19T01:07:46.275Z,101065.22
2022-12-19T01:10:14.022Z,101069.41
2022-12-19T01:12:46.640Z,101062.47
2022-12-19T01:15:20.643Z,101045.81
2022-12-19T01:17:48.893Z,101053.88
2022-12-19T01:20:19.432Z,101040.38
2022-12-19T01:22:54.212Z,101046.38
2022-12-19T01:25:22.042Z,101042.75
2022-12-19T01:27:49.653Z,101045.38
2022-12-19T01:30:18.978Z,101039.16
2022-12-19T01:32:47.591Z,101046.06
2022-12-19T01:35:21.792Z,101036.91
2022-12-19T01:37:50.181Z,101039.56
2022-12-19T01:40:17.865Z,101040.25
2022-12-19T01:42:45.557Z,101035.53
2022-12-19T01:45:33.881Z,101039.97
2022-12-19T01:48:15.988Z,101035.38
2022-12-19T01:50:58.439Z,101033.28
2022-12-19T01:53:33.205Z,101022.31
2022-12-19T01:56:09.280Z,100999.38
2022-12-19T01:58:39.412Z,100999.09
2022-12-19T02:01:08.729Z,101004.38
2022-12-19T02:03:38.490Z,100993.72
2022-12-19T02:06:07.205Z,100991.59
2022-12-19T02:08:36.038Z,100993.28
2022-12-19T02:11:03.647Z,100982.97
2022-12-19T02:13:31.561Z,100978.53
2022-12-19T02:16:04.693Z,100972.97
2022-12-19T02:18:40.889Z,100968.53
2022-12-19T02:21:21.485Z,100967.41
2022-12-19T02:24:15.469Z,100962.81
2022-12-19T02:26:58.787Z,100954.03
2022-12-19T02:30:09.066Z,100961.91
2022-12-19T02:32:43.466Z,100945.41
2022-12-19T02:35:15.617Z,100941.50
2022-12-19T02:37:48.124Z,100942.19
2022-12-19T02:40:21.383Z,100934.09
2022-12-19T02:42:51.864Z,100929.09
2022-12-19T02:45:26.987Z,100922.81
2022-12-19T02:47:58.424Z,100917.53
2022-12-19T02:50:37.418Z,100913.19
2022-12-19T02:53:04.943Z,100899.13
2022-12-19T02:55:36.252Z,100893.69
2022-12-19T02:58:37.652Z,100892.88
2022-12-19T03:01:13.990Z,100892.28
2022-12-19T03:03:49.983Z,100891.00
2022-12-19T03:06:23.687Z,100888.44
2022-12-19T03:08:56.707Z,100899.00
2022-12-19T03:11:28.510Z,100894.16
2022-12-19T03:13:58.873Z,100889.94
2022-12-19T03:16:26.696Z,100885.66
2022-12-19T03:18:56.591Z,100887.75
2022-12-19T03:21:27.404Z,100883.97
2022-12-19T03:23:56.754Z,100875.59
2022-12-19T03:26:26.854Z,100863.59
2022-12-19T03:28:56.749Z,100865.34
2022-12-19T03:31:26.362Z,100865.88
2022-12-19T03:33:58.545Z,100868.38
2022-12-19T03:36:29.917Z,100866.09
2022-12-19T03:38:58.203Z,100863.31
2022-12-19T03:41:40.271Z,100866.91
2022-12-19T03:44:08.808Z,100864.44
2022-12-19T03:46:39.865Z,100862.84
2022-12-19T03:49:09.018Z,100857.06
2022-12-19T03:51:42.699Z,100843.84
2022-12-19T03:54:14.416Z,100846.75
2022-12-19T03:56:47.825Z,100838.16
2022-12-19T03:59:19.256Z,100843.13
2022-12-19T04:01:47.731Z,100835.19
2022-12-19T04:04:17.144Z,100835.53
2022-12-19T04:06:45.202Z,100833.69
2022-12-19T04:09:16.754Z,100829.41
2022-12-19T04:11:52.405Z,100832.63
2022-12-19T04:14:23.444Z,100820.47
2022-12-19T04:16:57.218Z,100823.94
2022-12-19T04:19:32.050Z,100814.75
2022-12-19T04:22:04.829Z,100814.94
2022-12-19T04:24:35.863Z,100808.00
2022-12-19T04:27:06.773Z,100803.53
2022-12-19T04:29:36.836Z,100805.56
2022-12-19T04:32:07.308Z,100791.34
2022-12-19T04:34:40.197Z,100797.34
2022-12-19T04:37:12.259Z,100793.19
2022-12-19T04:39:40.085Z,100795.66
2022-12-19T04:42:07.632Z,100788.09
2022-12-19T04:44:35.166Z,100780.84
2022-12-19T04:47:03.481Z,100787.16
2022-12-19T04:49:31.242Z,100772.91
2022-12-19T04:52:00.294Z,100783.84
2022-12-19T04:54:28.330Z,100780.59
2022-12-19T04:56:56.300Z,100776.63
2022-12-19T04:59:24.756Z,100773.97
2022-12-19T05:01:52.582Z,100769.72
2022-12-19T05:04:20.429Z,100763.81
2022-12-19T05:06:48.840Z,100762.13
2022-12-19T05:09:17.774Z,100768.13
2022-12-19T05:11:45.497Z,100768.78
2022-12-19T05:14:13.368Z,100753.22
2022-12-19T05:16:41.175Z,100753.75
2022-12-19T05:19:09.607Z,100749.94
2022-12-19T05:21:37.065Z,100743.88
2022-12-19T05:24:05.339Z,100735.09
2022-12-19T05:26:34.334Z,100739.75
2022-12-19T05:29:02.836Z,100736.13
2022-12-19T05:31:30.621Z,100732.81
2022-12-19T05:33:58.174Z,100732.50
2022-12-19T05:36:32.180Z,100734.81
2022-12-19T05:39:00.245Z,100733.31
2022-12-19T05:41:27.816Z,100734.34
2022-12-19T05:43:57.146Z,100733.53
2022-12-19T05:46:25.666Z,100739.31
2022-12-19T05:48:53.405Z,100738.50
2022-12-19T05:51:22.149Z,100737.81
2022-12-19T05:53:50.044Z,100737.50
2022-12-19T05:56:19.603Z,100741.81
2022-12-19T05:58:47.830Z,100732.22
2022-12-19T06:01:18.729Z,100740.34
2022-12-19T06:03:46.366Z,100736.88
2022-12-19T06:06:15.288Z,100745.16
2022-12-19T06:08:43.383Z,100744.50
2022-12-19T06:11:11.787Z,100743.53
2022-12-19T06:13:39.922Z,100746.84
2022-12-19T06:16:10.416Z,100731.44
2022-12-19T06:18:45.211Z,100735.09
2022-12-19T06:21:14.759Z,100731.94
2022-12-19T06:23:43.275Z,100732.09
2022-12-19T06:26:18.722Z,100723.00
2022-12-19T06:28:48.067Z,100722.50
2022-12-19T06:31:16.840Z,100722.66
2022-12-19T06:33:45.697Z,100717.34
2022-12-19T06:36:16.004Z,100721.25
2022-12-19T06:38:43.576Z,100714.66
2022-12-19T06:41:29.654Z,100710.50
2022-12-19T06:43:59.256Z,100711.16
2022-12-19T06:46:26.852Z,100711.97
2022-12-19T06:48:55.785Z,100709.34
2022-12-19T06:51:24.597Z,100700.03
2022-12-19T06:53:53.644Z,100697.56
2022-12-19T06:56:21.713Z,100698.03
2022-12-19T06:58:50.035Z,100694.19
2022-12-19T07:01:18.328Z,100693.91
2022-12-19T07:03:48.182Z,100687.38
2022-12-19T07:06:20.655Z,100693.03
2022-12-19T07:08:48.907Z,100686.88
2022-12-19T07:11:16.478Z,100686.34
2022-12-19T07:13:44.079Z,100684.34
2022-12-19T07:16:12.038Z,100693.31
2022-12-19T07:18:40.969Z,100688.97
2022-12-19T07:21:11.306Z,100682.34
2022-12-19T07:23:40.844Z,100689.28
2022-12-19T07:26:08.457Z,100691.78
2022-12-19T07:28:36.611Z,100693.09
2022-12-19T07:31:05.350Z,100695.22
2022-12-19T07:33:33.716Z,100693.59
2022-12-19T07:36:01.417Z,100693.88
2022-12-19T07:38:29.740Z,100694.56
2022-12-19T07:41:01.987Z,100708.44
2022-12-19T07:43:30.633Z,100701.63
2022-12-19T07:45:58.437Z,100700.78
2022-12-19T07:48:28.884Z,100698.44
2022-12-19T07:50:56.437Z,100692.31
2022-12-19T07:53:24.029Z,100687.00
2022-12-19T07:55:51.707Z,100696.59
2022-12-19T07:58:20.781Z,100693.28
2022-12-19T08:00:55.238Z,100697.34
2022-12-19T08:03:23.049Z,100698.72
2022-12-19T08:05:51.130Z,100702.34
2022-12-19T08:08:19.094Z,100704.31
2022-12-19T08:10:47.899Z,100697.66
2022-12-19T08:13:15.730Z,100708.81
2022-12-19T08:15:44.734Z,100700.25
2022-12-19T08:18:12.599Z,100698.31
2022-12-19T08:20:40.399Z,100704.31
2022-12-19T08:23:08.376Z,100709.25
2022-12-19T08:25:35.982Z,100705.91
2022-12-19T08:28:03.810Z,100710.91
2022-12-19T08:30:31.656Z,100714.25
2022-12-19T08:33:00.768Z,100707.56
2022-12-19T08:35:28.377Z,100704.72
2022-12-19T08:37:56.222Z,100706.84
2022-12-19T08:40:24.325Z,100706.50
2022-12-19T08:42:52.395Z,100701.44
2022-12-19T08:45:20.193Z,100705.28
2022-12-19T08:47:48.235Z,100697.59
2022-12-19T08:50:17.393Z,100698.09
2022-12-19T08:52:44.993Z,100686.75
2022-12-19T08:55:12.836Z,100701.31
2022-12-19T08:57:40.590Z,100698.75
2022-12-19T09:00:09.890Z,100707.56
2022-12-19T09:02:38.747Z,100706.50
2022-12-19T09:06:01.766Z,100702.25
2022-12-19T09:08:00.916Z,100693.22
2022-12-19T09:10:30.535Z,100696.81
2022-12-19T09:12:58.322Z,100693.31
2022-12-19T09:15:26.209Z,100695.91
2022-12-19T09:17:54.861Z,100701.50
2022-12-19T09:20:25.401Z,100695.34
2022-12-19T09:22:55.351Z,100691.72
2022-12-19T09:25:24.362Z,100688.22
2022-12-19T09:28:25.932Z,100699.25
2022-12-19T09:30:39.762Z,100686.97
2022-12-19T09:33:07.545Z,100688.81
2022-12-19T09:35:37.034Z,100684.31
2022-12-19T09:38:04.864Z,100680.47
2022-12-19T09:40:44.270Z,100691.94
2022-12-19T09:43:22.103Z,100674.78
2022-12-19T09:45:54.931Z,100674.78
2022-12-19T09:48:24.266Z,100681.00
2022-12-19T09:51:09.359Z,100681.56
2022-12-19T09:53:45.913Z,100673.59
2022-12-19T09:56:34.066Z,100687.53
2022-12-19T09:59:15.377Z,100686.97
2022-12-19T10:01:50.891Z,100688.81
2022-12-19T10:04:20.047Z,100683.47
2022-12-19T10:07:12.514Z,100694.66
2022-12-19T10:11:29.162Z,100690.09
2022-12-19T10:12:50.985Z,100692.75
2022-12-19T10:15:24.828Z,100694.66
2022-12-19T10:18:06.541Z,100704.78
2022-12-19T10:20:37.167Z,100710.81
2022-12-19T10:23:19.180Z,100697.22
2022-12-19T10:25:53.102Z,100696.78
2022-12-19T10:28:39.430Z,100689.41
2022-12-19T10:31:21.472Z,100698.97
2022-12-19T10:33:57.217Z,100701.22
2022-12-19T10:36:48.801Z,100705.81
2022-12-19T10:39:18.828Z,100702.59
2022-12-19T10:41:47.772Z,100705.09
2022-12-19T10:44:19.506Z,100708.38
2022-12-19T10:46:49.862Z,100716.63
2022-12-19T10:49:19.083Z,100716.25
2022-12-19T10:51:54.854Z,100712.66
2022-12-19T10:54:33.069Z,100706.94
2022-12-19T10:57:19.386Z,100710.69
2022-12-19T11:00:00.250Z,100718.03
2022-12-19T11:02:35.530Z,100714.75
2022-12-19T11:05:03.776Z,100715.75
2022-12-19T11:07:31.756Z,100706.13
2022-12-19T11:10:23.138Z,100705.59
2022-12-19T11:18:14.375Z,100705.97
2022-12-19T11:20:12.307Z,100710.09
2022-12-19T11:27:03.788Z,100698.50
2022-12-19T11:29:54.947Z,100702.69
2022-12-19T11:30:09.509Z,100704.34
2022-12-19T11:30:45.890Z,100701.28
2022-12-19T11:33:16.857Z,100708.09
2022-12-19T11:35:50.204Z,100704.06
2022-12-19T11:38:21.745Z,100711.44
2022-12-19T11:40:52.822Z,100711.44
2022-12-19T11:43:43.944Z,100726.25
2022-12-19T11:46:22.390Z,100715.63
2022-12-19T11:48:56.164Z,100719.69
2022-12-19T11:51:29.626Z,100716.41
2022-12-19T11:54:02.183Z,100710.81
2022-12-19T11:56:30.417Z,100698.53
2022-12-19T11:59:02.025Z,100688.56
2022-12-19T12:01:43.638Z,100688.84
2022-12-19T12:04:34.044Z,100688.22
2022-12-19T12:07:04.116Z,100681.38
2022-12-19T12:12:55.099Z,100675.13
2022-12-19T12:18:38.386Z,100664.06
2022-12-19T12:28:34.979Z,100668.22
2022-12-19T12:28:44.066Z,100664.09
2022-12-19T12:31:21.282Z,100679.34
2022-12-19T12:31:42.780Z,100691.06
2022-12-19T12:31:45.831Z,100691.72
2022-12-19T12:31:50.066Z,100683.31
2022-12-19T12:35:30.229Z,100694.38
2022-12-19T12:39:18.302Z,100692.69
2022-12-19T12:42:05.796Z,100696.56
2022-12-19T12:44:41.093Z,100698.19
2022-12-19T12:47:16.963Z,100688.53
2022-12-19T12:49:46.210Z,100682.16
2022-12-19T12:52:16.756Z,100675.63
2022-12-19T12:54:51.348Z,100676.22
2022-12-19T12:57:21.964Z,100673.16
2022-12-19T13:00:18.243Z,100676.44
2022-12-19T13:02:48.097Z,100674.16
2022-12-19T13:05:32.590Z,100670.50
2022-12-19T13:08:00.271Z,100674.00
2022-12-19T13:10:31.902Z,100667.19
2022-12-19T13:13:02.730Z,100667.44
2022-12-19T13:15:39.793Z,100666.13
2022-12-19T13:18:15.968Z,100662.84
2022-12-19T13:20:46.094Z,100664.84
2022-12-19T13:23:49.931Z,100664.81
2022-12-19T13:26:52.416Z,100662.34
2022-12-19T13:29:31.731Z,100659.47
2022-12-19T13:32:13.626Z,100659.13
2022-12-19T13:34:48.808Z,100666.84
2022-12-19T13:39:57.248Z,100667.47
2022-12-19T13:40:32.584Z,100658.03
2022-12-19T13:43:31.468Z,100670.91
2022-12-19T13:46:01.440Z,100673.78
2022-12-19T13:48:32.321Z,100654.09
2022-12-19T13:51:01.939Z,100647.94
2022-12-19T13:53:30.731Z,100653.91
2022-12-19T13:56:01.954Z,100654.78
2022-12-19T13:58:32.624Z,100651.09
2022-12-19T14:04:41.929Z,100652.34
2022-12-19T14:07:36.965Z,100646.78
2022-12-19T14:11:30.980Z,100644.34
2022-12-19T14:13:50.132Z,100653.00
2022-12-19T14:16:01.274Z,100650.94
2022-12-19T14:18:44.253Z,100647.69
2022-12-19T14:22:03.940Z,100650.38
2022-12-19T14:24:15.001Z,100647.34
2022-12-19T14:28:21.002Z,100638.72
2022-12-19T14:30:36.531Z,100645.53
2022-12-19T14:33:39.271Z,100634.38
2022-12-19T14:36:10.814Z,100639.16
2022-12-19T14:39:26.753Z,100636.28
2022-12-19T14:42:01.073Z,100635.22
2022-12-19T14:54:02.605Z,100632.38
2022-12-19T14:54:06.517Z,100630.47
2022-12-19T14:54:27.811Z,100636.28
2022-12-19T14:54:39.880Z,100633.06
2022-12-19T14:59:00.619Z,100635.50
2022-12-19T15:01:30.469Z,100642.84
2022-12-19T15:04:49.128Z,100637.13
2022-12-19T15:07:07.333Z,100642.38
2022-12-19T15:11:04.925Z,100628.13
2022-12-19T15:14:51.743Z,100639.66
2022-12-19T15:15:59.199Z,100628.38
2022-12-19T15:18:31.478Z,100628.94
2022-12-19T15:21:01.458Z,100626.53
2022-12-19T15:23:33.809Z,100624.84
2022-12-19T15:26:05.230Z,100623.66
2022-12-19T15:28:40.571Z,100619.97
2022-12-19T15:31:15.078Z,100599.06
2022-12-19T15:34:14.511Z,100605.19
2022-12-19T15:36:31.779Z,100601.66
2022-12-19T15:39:05.570Z,100591.66
2022-12-19T15:41:33.442Z,100596.94
2022-12-19T15:44:06.636Z,100595.34
2022-12-19T15:46:35.894Z,100592.06
2022-12-19T15:49:08.620Z,100604.97
2022-12-19T15:51:37.445Z,100601.28
2022-12-19T15:54:38.727Z,100598.94
2022-12-19T15:56:56.922Z,100600.59
2022-12-19T15:59:36.526Z,100600.22
2022-12-19T16:02:16.917Z,100605.91
2022-12-19T16:04:45.451Z,100598.53
2022-12-19T16:07:16.781Z,100583.91
2022-12-19T16:09:46.146Z,100582.38
2022-12-19T16:12:16.717Z,100577.41
2022-12-19T16:14:45.073Z,100561.84
2022-12-19T16:17:15.597Z,100560.56
2022-12-19T16:19:44.580Z,100561.38
2022-12-19T16:22:18.711Z,100569.53
2022-12-19T16:24:48.227Z,100564.22
2022-12-19T16:27:21.696Z,100569.88
2022-12-19T16:29:50.902Z,100580.09
2022-12-19T16:32:22.937Z,100596.69
2022-12-19T16:34:51.730Z,100608.75
2022-12-19T16:37:20.315Z,100617.81
2022-12-19T16:39:49.322Z,100614.38
2022-12-19T16:42:18.360Z,100615.31
2022-12-19T16:44:47.108Z,100623.16
2022-12-19T16:47:17.727Z,100640.56
2022-12-19T16:49:46.264Z,100638.41
2022-12-19T16:52:14.124Z,100656.66
2022-12-19T16:54:42.167Z,100665.31
2022-12-19T16:57:19.616Z,100668.56
2022-12-19T16:59:47.778Z,100671.50
2022-12-19T17:02:36.773Z,100665.31
2022-12-19T17:05:05.240Z,100660.25
2022-12-19T17:07:33.235Z,100656.91
2022-12-19T17:10:01.096Z,100645.94
2022-12-19T17:12:31.027Z,100663.56
2022-12-19T17:14:59.761Z,100650.84
2022-12-19T17:17:28.308Z,100639.31
2022-12-19T17:19:56.235Z,100623.69
2022-12-19T17:22:24.109Z,100633.50
2022-12-19T17:24:51.778Z,100628.66
2022-12-19T17:27:21.004Z,100621.28
2022-12-19T17:29:50.225Z,100616.19
2022-12-19T17:32:23.965Z,100623.66
2022-12-19T17:34:53.804Z,100626.41
2022-12-19T17:37:23.056Z,100635.50
2022-12-19T17:39:50.903Z,100630.72
2022-12-19T17:42:22.614Z,100625.63
2022-12-19T17:44:53.115Z,100631.38
2022-12-19T17:47:21.559Z,100631.91
2022-12-19T17:49:50.322Z,100632.13
2022-12-19T17:52:20.114Z,100635.97
2022-12-19T17:54:48.333Z,100638.72
2022-12-19T17:57:17.322Z,100644.88
2022-12-19T17:59:46.687Z,100648.75
2022-12-19T18:02:29.973Z,100655.59
2022-12-19T18:04:58.487Z,100650.22
2022-12-19T18:07:26.770Z,100650.25
2022-12-19T18:09:57.207Z,100632.19
2022-12-19T18:12:25.299Z,100633.41
2022-12-19T18:14:53.123Z,100628.50
2022-12-19T18:17:24.352Z,100624.19
2022-12-19T18:19:54.223Z,100624.66
2022-12-19T18:22:22.191Z,100628.94
2022-12-19T18:24:50.266Z,100627.50
2022-12-19T18:27:18.979Z,100626.84
2022-12-19T18:29:48.530Z,100630.56
2022-12-19T18:32:19.052Z,100623.63
2022-12-19T18:34:49.156Z,100635.97
2022-12-19T18:37:18.798Z,100633.00
2022-12-19T18:39:47.069Z,100639.53
2022-12-19T18:42:20.759Z,100624.47
2022-12-19T18:44:49.181Z,100627.78
2022-12-19T18:47:21.141Z,100623.69
2022-12-19T18:49:52.741Z,100621.50
2022-12-19T18:52:21.635Z,100631.72
2022-12-19T18:54:51.683Z,100625.44
2022-12-19T18:57:20.303Z,100636.28
2022-12-19T18:59:48.568Z,100626.06
2022-12-19T19:02:25.861Z,100636.13
2022-12-19T19:04:57.052Z,100626.94
2022-12-19T19:07:24.879Z,100626.47
2022-12-19T19:09:54.108Z,100632.59
2022-12-19T19:12:22.603Z,100626.31
2022-12-19T19:14:52.177Z,100626.84
2022-12-19T19:17:25.888Z,100622.72
2022-12-19T19:19:53.867Z,100628.91
2022-12-19T19:22:23.392Z,100634.97
2022-12-19T19:24:52.088Z,100628.03
2022-12-19T19:27:19.854Z,100631.09
2022-12-19T19:29:48.514Z,100621.94
2022-12-19T19:32:16.865Z,100626.78
2022-12-19T19:34:47.063Z,100627.25
2022-12-19T19:37:16.224Z,100637.94
2022-12-19T19:39:46.081Z,100637.94
2022-12-19T19:42:14.872Z,100642.47
2022-12-19T19:44:42.606Z,100642.25
2022-12-19T19:47:10.566Z,100629.34
2022-12-19T19:49:38.422Z,100632.72
2022-12-19T19:52:06.465Z,100626.97
2022-12-19T19:54:35.903Z,100634.44
2022-12-19T19:57:05.526Z,100640.66
2022-12-19T19:59:33.359Z,100634.47
2022-12-19T20:02:03.352Z,100638.16
2022-12-19T20:04:31.990Z,100655.66
2022-12-19T20:06:59.974Z,100653.81
2022-12-19T20:09:28.049Z,100662.81
2022-12-19T20:11:56.767Z,100652.34
2022-12-19T20:14:27.917Z,100657.13
2022-12-19T20:16:56.759Z,100657.13
2022-12-19T20:19:24.851Z,100653.03
2022-12-19T20:21:53.082Z,100660.81
2022-12-19T20:24:21.223Z,100663.69
2022-12-19T20:26:49.173Z,100667.75
2022-12-19T20:29:17.035Z,100662.41
2022-12-19T20:31:48.698Z,100656.84
2022-12-19T20:34:16.773Z,100661.59
2022-12-19T20:36:46.804Z,100661.97
2022-12-19T20:42:56.466Z,100660.81
2022-12-19T20:45:24.505Z,100658.38
2022-12-19T20:47:55.492Z,100654.25
2022-12-19T20:50:25.165Z,100667.00
2022-12-19T20:52:53.039Z,100663.69
2022-12-19T20:55:21.519Z,100667.78
2022-12-19T20:57:49.430Z,100671.06
2022-12-19T21:04:02.252Z,100670.66
2022-12-19T21:06:30.337Z,100679.06
2022-12-19T21:08:58.908Z,100676.38
2022-12-19T21:11:28.762Z,100668.22
2022-12-19T21:13:57.562Z,100667.38
2022-12-19T21:16:27.487Z,100666.56
2022-12-19T21:18:56.163Z,100662.88
2022-12-19T21:21:27.488Z,100663.94
2022-12-19T21:23:56.245Z,100667.38
2022-12-19T21:26:25.902Z,100670.66
2022-12-19T21:28:53.886Z,100663.44
2022-12-19T21:31:25.226Z,100665.72
2022-12-19T21:33:55.418Z,100670.50
2022-12-19T21:36:29.877Z,100668.84
2022-12-19T21:39:00.499Z,100663.66
2022-12-19T21:41:29.402Z,100653.63
2022-12-19T21:43:57.539Z,100654.56
2022-12-19T21:46:27.454Z,100652.47
2022-12-19T21:48:57.390Z,100657.06
2022-12-19T21:51:31.995Z,100656.88
2022-12-19T21:54:01.666Z,100659.59
2022-12-19T21:56:31.726Z,100656.31
2022-12-19T21:59:01.908Z,100653.44
2022-12-19T22:01:30.898Z,100655.09
2022-12-19T22:04:00.544Z,100658.31
2022-12-19T22:06:33.176Z,100665.34
2022-12-19T22:09:02.229Z,100661.88
2022-12-19T22:11:30.700Z,100657.31
2022-12-19T22:14:00.167Z,100655.94
2022-12-19T22:16:29.384Z,100653.44
2022-12-19T22:22:39.526Z,100665.78
2022-12-19T22:25:08.403Z,100656.78
2022-12-19T22:27:36.279Z,100647.28
2022-12-19T22:30:10.567Z,100645.25
2022-12-19T22:32:39.913Z,100653.88
2022-12-19T22:35:08.485Z,100659.19
2022-12-19T22:37:36.925Z,100650.97
2022-12-19T23:13:33.707Z,100621.84
